sensor_id;sensor_type;location;lat;lon;timestamp;pressure;altitude;pressure_sealevel;temperature;humidity
17254;BME280;32542;52.832;13.816;2023-05-12T00:01:33;101777.31;;;21.84;45.46
17254;BME280;32542;52.832;13.816;2023-05-12T00:04:36;101770.22;;;21.83;45.46
17254;BME280;32542;52.832;13.816;2023-05-12T00:07:42;101777.31;;;21.84;45.38
17254;BME280;32542;52.832;13.816;2023-05-12T00:10:45;101776.44;;;21.83;45.49
17254;BME280;32542;52.832;13.816;2023-05-12T00:13:48;101773.75;;;21.83;45.53
17254;BME280;32542;52.832;13.816;2023-05-12T00:16:50;101776.44;;;21.83;45.39
17254;BME280;32542;52.832;13.816;2023-05-12T00:19:53;101771.09;;;21.83;45.40
17254;BME280;32542;52.832;13.816;2023-05-12T00:22:57;101778.19;;;21.84;45.41
17254;BME280;32542;52.832;13.816;2023-05-12T00:26:00;101775.53;;;21.83;45.50
17254;BME280;32542;52.832;13.816;2023-05-12T00:29:03;101765.75;;;21.83;45.51
17254;BME280;32542;52.832;13.816;2023-05-12T00:32:06;101771.09;;;21.83;45.36
17254;BME280;32542;52.832;13.816;2023-05-12T00:35:09;101768.44;;;21.83;45.43
17254;BME280;32542;52.832;13.816;2023-05-12T00:38:13;101771.09;;;21.83;45.45
17254;BME280;32542;52.832;13.816;2023-05-12T00:41:16;101775.53;;;21.83;45.48
17254;BME280;32542;52.832;13.816;2023-05-12T00:44:19;101769.38;;;21.82;45.46
17254;BME280;32542;52.832;13.816;2023-05-12T00:47:21;101773.78;;;21.82;45.45
17254;BME280;32542;52.832;13.816;2023-05-12T00:50:25;101772.91;;;21.81;45.47
17254;BME280;32542;52.832;13.816;2023-05-12T00:53:29;101775.56;;;21.81;45.29
17254;BME280;32542;52.832;13.816;2023-05-12T00:56:48;101778.25;;;21.81;45.45
17254;BME280;32542;52.832;13.816;2023-05-12T00:59:52;101772.91;;;21.81;45.38
17254;BME280;32542;52.832;13.816;2023-05-12T01:02:56;101774.69;;;21.82;45.43
17254;BME280;32542;52.832;13.816;2023-05-12T01:06:08;101775.53;;;21.83;45.55
17254;BME280;32542;52.832;13.816;2023-05-12T01:09:14;101774.69;;;21.82;45.44
17254;BME280;32542;52.832;13.816;2023-05-12T01:12:18;101783.56;;;21.81;45.27
17254;BME280;32542;52.832;13.816;2023-05-12T01:15:22;101785.38;;;21.81;45.47
17254;BME280;32542;52.832;13.816;2023-05-12T01:18:26;101788.91;;;21.81;45.45
17254;BME280;32542;52.832;13.816;2023-05-12T01:21:29;101788.91;;;21.81;45.45
17254;BME280;32542;52.832;13.816;2023-05-12T01:24:37;101797.81;;;21.80;45.54
17254;BME280;32542;52.832;13.816;2023-05-12T01:27:44;101799.66;;;21.80;45.51
17254;BME280;32542;52.832;13.816;2023-05-12T01:30:48;101800.47;;;21.80;45.41
17254;BME280;32542;52.832;13.816;2023-05-12T01:33:52;101793.44;;;21.79;45.38
17254;BME280;32542;52.832;13.816;2023-05-12T01:36:55;101806.75;;;21.79;45.42
17254;BME280;32542;52.832;13.816;2023-05-12T01:39:58;101803.16;;;21.80;45.35
17254;BME280;32542;52.832;13.816;2023-05-12T01:43:02;101796.97;;;21.80;45.43
17254;BME280;32542;52.832;13.816;2023-05-12T01:46:06;101801.44;;;21.79;45.32
17254;BME280;32542;52.832;13.816;2023-05-12T01:49:13;101796.09;;;21.79;45.30
17254;BME280;32542;52.832;13.816;2023-05-12T01:52:15;101806.75;;;21.79;45.35
17254;BME280;32542;52.832;13.816;2023-05-12T01:55:19;101801.44;;;21.79;45.33
17254;BME280;32542;52.832;13.816;2023-05-12T01:58:31;101805.00;;;21.78;45.33
17254;BME280;32542;52.832;13.816;2023-05-12T02:01:35;101805.00;;;21.78;45.43
17254;BME280;32542;52.832;13.816;2023-05-12T02:04:39;101809.50;;;21.77;45.50
17254;BME280;32542;52.832;13.816;2023-05-12T02:07:42;101808.63;;;21.77;45.41
17254;BME280;32542;52.832;13.816;2023-05-12T02:10:46;101809.53;;;21.76;45.39
17254;BME280;32542;52.832;13.816;2023-05-12T02:13:50;101805.94;;;21.77;45.34
17254;BME280;32542;52.832;13.816;2023-05-12T02:16:53;101809.50;;;21.77;45.55
17254;BME280;32542;52.832;13.816;2023-05-12T02:19:58;101811.28;;;21.77;45.41
17254;BME280;32542;52.832;13.816;2023-05-12T02:23:01;101802.41;;;21.76;45.39
17254;BME280;32542;52.832;13.816;2023-05-12T02:26:06;101812.19;;;21.76;45.39
17254;BME280;32542;52.832;13.816;2023-05-12T02:29:11;101819.28;;;21.77;45.45
17254;BME280;32542;52.832;13.816;2023-05-12T02:32:13;101824.63;;;21.77;45.36
17254;BME280;32542;52.832;13.816;2023-05-12T02:35:20;101824.63;;;21.77;45.48
17254;BME280;32542;52.832;13.816;2023-05-12T02:38:23;101831.72;;;21.76;45.42
17254;BME280;32542;52.832;13.816;2023-05-12T02:41:26;101824.69;;;21.75;45.37
17254;BME280;32542;52.832;13.816;2023-05-12T02:44:30;101827.34;;;21.75;45.37
17254;BME280;32542;52.832;13.816;2023-05-12T02:47:33;101831.78;;;21.75;45.42
17254;BME280;32542;52.832;13.816;2023-05-12T02:50:37;101830.03;;;21.74;45.48
17254;BME280;32542;52.832;13.816;2023-05-12T02:53:39;101830.03;;;21.74;45.40
17254;BME280;32542;52.832;13.816;2023-05-12T02:56:42;101827.38;;;21.74;45.37
17254;BME280;32542;52.832;13.816;2023-05-12T02:59:47;101819.38;;;21.74;45.53
17254;BME280;32542;52.832;13.816;2023-05-12T03:02:50;101823.84;;;21.73;45.46
17254;BME280;32542;52.832;13.816;2023-05-12T03:05:53;101817.66;;;21.73;45.47
17254;BME280;32542;52.832;13.816;2023-05-12T03:08:56;101824.72;;;21.74;45.47
17254;BME280;32542;52.832;13.816;2023-05-12T03:12:00;101815.88;;;21.73;45.48
17254;BME280;32542;52.832;13.816;2023-05-12T03:15:05;101814.91;;;21.74;45.36
17254;BME280;32542;52.832;13.816;2023-05-12T03:18:09;101825.59;;;21.74;45.42
17254;BME280;32542;52.832;13.816;2023-05-12T03:21:12;101824.72;;;21.74;45.40
17254;BME280;32542;52.832;13.816;2023-05-12T03:24:15;101822.97;;;21.73;45.43
17254;BME280;32542;52.832;13.816;2023-05-12T03:27:18;101819.44;;;21.72;45.40
17254;BME280;32542;52.832;13.816;2023-05-12T03:30:22;101826.56;;;21.72;45.42
17254;BME280;32542;52.832;13.816;2023-05-12T03:33:25;101826.56;;;21.72;45.42
17254;BME280;32542;52.832;13.816;2023-05-12T03:36:28;101832.75;;;21.72;45.44
17254;BME280;32542;52.832;13.816;2023-05-12T03:39:31;101832.81;;;21.71;45.40
17254;BME280;32542;52.832;13.816;2023-05-12T03:42:34;101830.16;;;21.71;45.45
17254;BME280;32542;52.832;13.816;2023-05-12T03:45:38;101836.41;;;21.70;45.47
17254;BME280;32542;52.832;13.816;2023-05-12T03:48:41;101840.81;;;21.71;45.47
17254;BME280;32542;52.832;13.816;2023-05-12T03:51:44;101840.81;;;21.71;45.37
17254;BME280;32542;52.832;13.816;2023-05-12T03:54:47;101838.16;;;21.71;45.41
17254;BME280;32542;52.832;13.816;2023-05-12T03:57:49;101850.56;;;21.72;45.50
17254;BME280;32542;52.832;13.816;2023-05-12T04:00:56;101842.56;;;21.72;45.48
17254;BME280;32542;52.832;13.816;2023-05-12T04:04:00;101847.03;;;21.71;45.48
17254;BME280;32542;52.832;13.816;2023-05-12T04:07:04;101849.69;;;21.71;45.41
17254;BME280;32542;52.832;13.816;2023-05-12T04:10:07;101854.97;;;21.73;45.41
17254;BME280;32542;52.832;13.816;2023-05-12T04:13:10;101853.22;;;21.72;45.47
17254;BME280;32542;52.832;13.816;2023-05-12T04:16:15;101849.69;;;21.71;45.43
17254;BME280;32542;52.832;13.816;2023-05-12T04:19:18;101858.56;;;21.72;45.48
17254;BME280;32542;52.832;13.816;2023-05-12T04:22:21;101861.22;;;21.72;45.40
17254;BME280;32542;52.832;13.816;2023-05-12T04:25:26;101859.44;;;21.72;45.48
17254;BME280;32542;52.832;13.816;2023-05-12T04:28:29;101855.88;;;21.72;45.33
17254;BME280;32542;52.832;13.816;2023-05-12T04:31:33;101864.75;;;21.72;45.44
17254;BME280;32542;52.832;13.816;2023-05-12T04:34:38;101872.75;;;21.72;45.46
17254;BME280;32542;52.832;13.816;2023-05-12T04:37:42;101869.22;;;21.72;45.41
17254;BME280;32542;52.832;13.816;2023-05-12T04:40:45;101869.19;;;21.73;45.44
17254;BME280;32542;52.832;13.816;2023-05-12T04:43:48;101870.97;;;21.73;45.40
17254;BME280;32542;52.832;13.816;2023-05-12T04:46:56;101878.03;;;21.74;45.37
17254;BME280;32542;52.832;13.816;2023-05-12T04:49:59;101875.44;;;21.72;45.36
17254;BME280;32542;52.832;13.816;2023-05-12T04:53:01;101880.75;;;21.72;45.34
17254;BME280;32542;52.832;13.816;2023-05-12T04:56:05;101871.84;;;21.73;45.29
17254;BME280;32542;52.832;13.816;2023-05-12T04:59:11;101875.44;;;21.72;45.40
17254;BME280;32542;52.832;13.816;2023-05-12T05:02:18;101888.75;;;21.72;45.33
17254;BME280;32542;52.832;13.816;2023-05-12T05:05:21;101879.88;;;21.72;45.35
17254;BME280;32542;52.832;13.816;2023-05-12T05:08:24;101891.41;;;21.72;45.43
17254;BME280;32542;52.832;13.816;2023-05-12T05:11:27;101897.63;;;21.73;45.39
17254;BME280;32542;52.832;13.816;2023-05-12T05:14:30;101893.22;;;21.72;45.36
17254;BME280;32542;52.832;13.816;2023-05-12T05:17:35;101890.53;;;21.72;45.42
17254;BME280;32542;52.832;13.816;2023-05-12T05:20:40;101897.63;;;21.73;45.34
17254;BME280;32542;52.832;13.816;2023-05-12T05:23:47;101904.75;;;21.72;45.38
17254;BME280;32542;52.832;13.816;2023-05-12T05:26:50;101902.97;;;21.73;45.32
17254;BME280;32542;52.832;13.816;2023-05-12T05:29:53;101907.41;;;21.72;45.40
17254;BME280;32542;52.832;13.816;2023-05-12T05:32:57;101904.75;;;21.72;45.34
17254;BME280;32542;52.832;13.816;2023-05-12T05:36:00;101903.84;;;21.73;45.51
17254;BME280;32542;52.832;13.816;2023-05-12T05:39:04;101910.97;;;21.73;45.44
17254;BME280;32542;52.832;13.816;2023-05-12T05:42:08;101912.69;;;21.74;45.48
17254;BME280;32542;52.832;13.816;2023-05-12T05:45:11;101919.84;;;21.73;45.38
17254;BME280;32542;52.832;13.816;2023-05-12T05:48:15;101917.13;;;21.75;45.45
17254;BME280;32542;52.832;13.816;2023-05-12T05:51:20;101918.03;;;21.74;45.46
17254;BME280;32542;52.832;13.816;2023-05-12T05:54:23;101922.50;;;21.73;45.36
17254;BME280;32542;52.832;13.816;2023-05-12T05:57:26;101920.69;;;21.74;45.38
17254;BME280;32542;52.832;13.816;2023-05-12T06:00:31;101919.84;;;21.73;45.46
17254;BME280;32542;52.832;13.816;2023-05-12T06:03:36;101932.22;;;21.74;45.38
17254;BME280;32542;52.832;13.816;2023-05-12T06:06:39;101931.34;;;21.74;45.38
17254;BME280;32542;52.832;13.816;2023-05-12T06:09:42;101928.66;;;21.75;45.38
17254;BME280;32542;52.832;13.816;2023-05-12T06:12:45;101934.91;;;21.74;45.43
17254;BME280;32542;52.832;13.816;2023-05-12T06:15:48;101938.44;;;21.75;45.37
17254;BME280;32542;52.832;13.816;2023-05-12T06:18:52;101945.50;;;21.76;45.42
17254;BME280;32542;52.832;13.816;2023-05-12T06:21:55;101938.44;;;21.75;45.39
17254;BME280;32542;52.832;13.816;2023-05-12T06:24:58;101942.84;;;21.76;45.38
17254;BME280;32542;52.832;13.816;2023-05-12T06:28:01;101948.16;;;21.76;45.43
17254;BME280;32542;52.832;13.816;2023-05-12T06:31:05;101944.66;;;21.75;45.48
17254;BME280;32542;52.832;13.816;2023-05-12T06:34:10;101946.44;;;21.75;45.52
17254;BME280;32542;52.832;13.816;2023-05-12T06:37:14;101950.00;;;21.75;45.45
17254;BME280;32542;52.832;13.816;2023-05-12T06:40:17;101951.72;;;21.76;45.49
17254;BME280;32542;52.832;13.816;2023-05-12T06:43:20;101953.47;;;21.77;45.54
17254;BME280;32542;52.832;13.816;2023-05-12T06:46:28;101952.47;;;21.80;45.70
17254;BME280;32542;52.832;13.816;2023-05-12T06:49:32;101957.78;;;21.82;45.73
17254;BME280;32542;52.832;13.816;2023-05-12T06:52:37;101950.63;;;21.84;45.83
17254;BME280;32542;52.832;13.816;2023-05-12T06:55:40;101948.84;;;21.84;45.86
17254;BME280;32542;52.832;13.816;2023-05-12T06:58:44;101950.56;;;21.85;45.88
17254;BME280;32542;52.832;13.816;2023-05-12T07:01:48;101946.06;;;21.87;46.04
17254;BME280;32542;52.832;13.816;2023-05-12T07:04:53;101941.59;;;21.88;46.08
17254;BME280;32542;52.832;13.816;2023-05-12T07:07:55;101950.44;;;21.90;46.13
17254;BME280;32542;52.832;13.816;2023-05-12T07:10:59;101945.03;;;21.91;46.20
17254;BME280;32542;52.832;13.816;2023-05-12T07:14:02;101950.38;;;21.91;46.13
17254;BME280;32542;52.832;13.816;2023-05-12T07:17:05;101945.91;;;21.92;46.26
17254;BME280;32542;52.832;13.816;2023-05-12T07:20:10;101948.53;;;21.93;46.52
17254;BME280;32542;52.832;13.816;2023-05-12T07:23:13;101944.94;;;21.94;46.33
17254;BME280;32542;52.832;13.816;2023-05-12T07:26:17;101949.34;;;21.95;46.27
17254;BME280;32542;52.832;13.816;2023-05-12T07:29:20;101946.66;;;21.95;46.23
17254;BME280;32542;52.832;13.816;2023-05-12T07:32:23;101959.09;;;21.96;46.22
17254;BME280;32542;52.832;13.816;2023-05-12T07:35:29;101952.81;;;21.97;46.13
17254;BME280;32542;52.832;13.816;2023-05-12T07:38:31;101957.25;;;21.98;46.07
17254;BME280;32542;52.832;13.816;2023-05-12T07:41:34;101953.63;;;21.99;46.15
17254;BME280;32542;52.832;13.816;2023-05-12T07:44:39;101950.97;;;21.99;46.18
17254;BME280;32542;52.832;13.816;2023-05-12T07:47:42;101959.84;;;22.00;46.26
17254;BME280;32542;52.832;13.816;2023-05-12T07:50:46;101950.06;;;22.00;46.26
17254;BME280;32542;52.832;13.816;2023-05-12T07:53:49;101950.06;;;22.00;46.22
17254;BME280;32542;52.832;13.816;2023-05-12T07:56:52;101950.94;;;22.01;46.18
17254;BME280;32542;52.832;13.816;2023-05-12T07:59:55;101956.28;;;22.01;46.26
17254;BME280;32542;52.832;13.816;2023-05-12T08:02:58;101953.56;;;22.02;46.22
17254;BME280;32542;52.832;13.816;2023-05-12T08:06:02;101949.09;;;22.03;46.19
17254;BME280;32542;52.832;13.816;2023-05-12T08:09:06;101950.88;;;22.02;46.13
17254;BME280;32542;52.832;13.816;2023-05-12T08:12:09;101945.47;;;22.04;46.24
17254;BME280;32542;52.832;13.816;2023-05-12T08:15:12;101946.38;;;22.04;46.27
17254;BME280;32542;52.832;13.816;2023-05-12T08:18:15;101949.91;;;22.05;46.21
17254;BME280;32542;52.832;13.816;2023-05-12T08:21:19;101954.31;;;22.06;46.16
17254;BME280;32542;52.832;13.816;2023-05-12T08:24:22;101951.63;;;22.06;46.14
17254;BME280;32542;52.832;13.816;2023-05-12T08:27:25;101941.84;;;22.06;46.14
17254;BME280;32542;52.832;13.816;2023-05-12T08:30:27;101950.72;;;22.07;46.15
17254;BME280;32542;52.832;13.816;2023-05-12T08:33:31;101955.19;;;22.06;46.20
17254;BME280;32542;52.832;13.816;2023-05-12T08:36:36;101946.28;;;22.07;46.15
17254;BME280;32542;52.832;13.816;2023-05-12T08:39:39;101949.78;;;22.08;46.15
17254;BME280;32542;52.832;13.816;2023-05-12T08:42:43;101942.66;;;22.08;46.19
17254;BME280;32542;52.832;13.816;2023-05-12T08:45:50;101959.53;;;22.09;46.23
17254;BME280;32542;52.832;13.816;2023-05-12T08:48:59;101948.88;;;22.09;46.25
17254;BME280;32542;52.832;13.816;2023-05-12T08:52:06;101958.59;;;22.10;46.16
17254;BME280;32542;52.832;13.816;2023-05-12T08:55:09;101949.69;;;22.11;46.08
17254;BME280;32542;52.832;13.816;2023-05-12T08:58:13;101940.81;;;22.10;46.06
17254;BME280;32542;52.832;13.816;2023-05-12T09:01:17;101953.25;;;22.11;45.99
17254;BME280;32542;52.832;13.816;2023-05-12T09:04:19;101947.91;;;22.11;45.96
17254;BME280;32542;52.832;13.816;2023-05-12T09:07:24;101943.47;;;22.10;46.00
17254;BME280;32542;52.832;13.816;2023-05-12T09:10:28;101939.91;;;22.11;46.04
17254;BME280;32542;52.832;13.816;2023-05-12T09:13:37;101938.13;;;22.12;45.94
17254;BME280;32542;52.832;13.816;2023-05-12T09:16:48;101937.22;;;22.11;45.85
17254;BME280;32542;52.832;13.816;2023-05-12T09:19:51;101926.56;;;22.11;46.04
17254;BME280;32542;52.832;13.816;2023-05-12T09:22:56;101931.91;;;22.11;45.95
17254;BME280;32542;52.832;13.816;2023-05-12T09:25:59;101925.75;;;22.09;45.70
17254;BME280;32542;52.832;13.816;2023-05-12T09:29:04;101926.66;;;22.08;45.46
17254;BME280;32542;52.832;13.816;2023-05-12T09:32:09;101917.19;;;22.00;41.42
17254;BME280;32542;52.832;13.816;2023-05-12T09:35:11;101914.66;;;21.95;39.59
17254;BME280;32542;52.832;13.816;2023-05-12T09:38:16;101918.44;;;21.90;36.99
17254;BME280;32542;52.832;13.816;2023-05-12T09:41:21;101915.97;;;21.84;33.56
17254;BME280;32542;52.832;13.816;2023-05-12T09:44:25;101945.38;;;21.82;33.45
17254;BME280;32542;52.832;13.816;2023-05-12T09:47:33;101949.88;;;21.78;35.99
17254;BME280;32542;52.832;13.816;2023-05-12T09:50:44;101931.22;;;21.78;36.90
17254;BME280;32542;52.832;13.816;2023-05-12T09:53:50;101924.09;;;21.79;37.68
17254;BME280;32542;52.832;13.816;2023-05-12T09:56:56;101922.31;;;21.78;35.77
17254;BME280;32542;52.832;13.816;2023-05-12T09:59:59;101927.66;;;21.78;36.73
17254;BME280;32542;52.832;13.816;2023-05-12T10:03:09;101917.94;;;21.77;37.13
17254;BME280;32542;52.832;13.816;2023-05-12T10:06:15;101917.06;;;21.76;37.20
17254;BME280;32542;52.832;13.816;2023-05-12T10:09:24;101916.16;;;21.77;37.28
17254;BME280;32542;52.832;13.816;2023-05-12T10:12:30;101917.00;;;21.78;37.38
17254;BME280;32542;52.832;13.816;2023-05-12T10:15:33;101916.03;;;21.81;37.62
17254;BME280;32542;52.832;13.816;2023-05-12T10:18:37;101912.44;;;21.82;37.89
17254;BME280;32542;52.832;13.816;2023-05-12T10:21:42;101918.69;;;21.82;38.36
17254;BME280;32542;52.832;13.816;2023-05-12T10:24:47;101925.69;;;21.85;38.55
17254;BME280;32542;52.832;13.816;2023-05-12T10:27:50;101915.00;;;21.86;38.65
17254;BME280;32542;52.832;13.816;2023-05-12T10:30:55;101913.16;;;21.88;38.65
17254;BME280;32542;52.832;13.816;2023-05-12T10:34:00;101922.88;;;21.89;38.81
17254;BME280;32542;52.832;13.816;2023-05-12T10:37:03;101925.53;;;21.89;38.98
17254;BME280;32542;52.832;13.816;2023-05-12T10:40:10;101907.69;;;21.91;39.07
17254;BME280;32542;52.832;13.816;2023-05-12T10:43:20;101898.78;;;21.92;39.13
17254;BME280;32542;52.832;13.816;2023-05-12T10:46:24;101905.84;;;21.93;39.22
17254;BME280;32542;52.832;13.816;2023-05-12T10:49:31;101892.50;;;21.93;39.48
17254;BME280;32542;52.832;13.816;2023-05-12T10:52:35;101909.38;;;21.94;39.64
17254;BME280;32542;52.832;13.816;2023-05-12T10:55:42;101892.47;;;21.95;39.72
17254;BME280;32542;52.832;13.816;2023-05-12T10:59:10;101905.75;;;21.96;39.96
17254;BME280;32542;52.832;13.816;2023-05-12T11:02:16;101897.75;;;21.96;40.11
17254;BME280;32542;52.832;13.816;2023-05-12T11:05:21;101906.56;;;21.98;40.28
17254;BME280;32542;52.832;13.816;2023-05-12T11:08:35;101900.34;;;21.98;40.39
17254;BME280;32542;52.832;13.816;2023-05-12T11:11:42;101905.59;;;22.01;40.44
17254;BME280;32542;52.832;13.816;2023-05-12T11:14:46;101886.03;;;22.00;40.47
17254;BME280;32542;52.832;13.816;2023-05-12T11:17:49;101900.25;;;22.01;40.63
17254;BME280;32542;52.832;13.816;2023-05-12T11:20:52;101886.91;;;22.01;40.64
17254;BME280;32542;52.832;13.816;2023-05-12T11:23:56;101908.19;;;22.02;40.65
17254;BME280;32542;52.832;13.816;2023-05-12T11:27:00;101894.88;;;22.02;40.65
17254;BME280;32542;52.832;13.816;2023-05-12T11:30:06;101899.38;;;22.00;40.66
17254;BME280;32542;52.832;13.816;2023-05-12T11:33:09;101897.59;;;22.01;40.98
17254;BME280;32542;52.832;13.816;2023-05-12T11:36:12;101897.59;;;22.01;40.72
17254;BME280;32542;52.832;13.816;2023-05-12T11:39:15;101891.38;;;22.00;41.14
17254;BME280;32542;52.832;13.816;2023-05-12T11:42:20;101891.47;;;21.97;41.06
17254;BME280;32542;52.832;13.816;2023-05-12T11:45:27;101895.09;;;21.96;40.89
17254;BME280;32542;52.832;13.816;2023-05-12T11:48:32;101895.16;;;21.95;40.31
17254;BME280;32542;52.832;13.816;2023-05-12T11:51:40;101895.19;;;21.93;39.76
17254;BME280;32542;52.832;13.816;2023-05-12T11:54:47;101891.69;;;21.91;39.57
17254;BME280;32542;52.832;13.816;2023-05-12T11:57:59;101900.63;;;21.90;39.13
17254;BME280;32542;52.832;13.816;2023-05-12T12:01:08;101885.66;;;21.86;36.61
17254;BME280;32542;52.832;13.816;2023-05-12T12:04:11;101893.75;;;21.83;36.14
17254;BME280;32542;52.832;13.816;2023-05-12T12:07:15;101891.13;;;21.82;36.16
17254;BME280;32542;52.832;13.816;2023-05-12T12:10:19;101891.16;;;21.80;34.98
17254;BME280;32542;52.832;13.816;2023-05-12T12:13:24;101883.22;;;21.78;35.32
17254;BME280;32542;52.832;13.816;2023-05-12T12:16:28;101890.31;;;21.78;35.64
17254;BME280;32542;52.832;13.816;2023-05-12T12:19:31;101882.31;;;21.80;34.87
17254;BME280;32542;52.832;13.816;2023-05-12T12:22:34;101888.44;;;21.82;34.41
17254;BME280;32542;52.832;13.816;2023-05-12T12:25:37;101891.13;;;21.82;34.39
17254;BME280;32542;52.832;13.816;2023-05-12T12:28:41;101892.84;;;21.84;34.34
17254;BME280;32542;52.832;13.816;2023-05-12T12:31:44;101887.44;;;21.86;34.56
17254;BME280;32542;52.832;13.816;2023-05-12T12:34:47;101893.53;;;21.89;33.77
17254;BME280;32542;52.832;13.816;2023-05-12T12:37:50;101896.22;;;21.89;33.88
17254;BME280;32542;52.832;13.816;2023-05-12T12:40:52;101891.69;;;21.91;34.59
17254;BME280;32542;52.832;13.816;2023-05-12T12:43:57;101888.13;;;21.92;34.62
17254;BME280;32542;52.832;13.816;2023-05-12T12:46:59;101886.25;;;21.94;33.98
17254;BME280;32542;52.832;13.816;2023-05-12T12:50:02;101897.75;;;21.96;34.06
17254;BME280;32542;52.832;13.816;2023-05-12T12:53:05;101884.41;;;21.96;34.05
17254;BME280;32542;52.832;13.816;2023-05-12T12:56:09;101885.22;;;21.98;33.85
17254;BME280;32542;52.832;13.816;2023-05-12T12:59:13;101896.78;;;21.99;33.47
17254;BME280;32542;52.832;13.816;2023-05-12T13:02:16;101900.28;;;21.99;33.09
17254;BME280;32542;52.832;13.816;2023-05-12T13:05:19;101891.38;;;22.00;32.92
17254;BME280;32542;52.832;13.816;2023-05-12T13:08:22;101891.38;;;22.00;33.14
17254;BME280;32542;52.832;13.816;2023-05-12T13:11:26;101887.03;;;21.98;33.04
17254;BME280;32542;52.832;13.816;2023-05-12T13:14:30;101895.84;;;22.00;33.59
17254;BME280;32542;52.832;13.816;2023-05-12T13:17:32;101891.38;;;22.00;33.49
17254;BME280;32542;52.832;13.816;2023-05-12T13:20:35;101883.44;;;21.99;33.48
17254;BME280;32542;52.832;13.816;2023-05-12T13:23:38;101878.94;;;21.99;33.45
17254;BME280;32542;52.832;13.816;2023-05-12T13:26:41;101868.25;;;22.01;33.46
17254;BME280;32542;52.832;13.816;2023-05-12T13:29:45;101877.06;;;22.03;33.09
17254;BME280;32542;52.832;13.816;2023-05-12T13:32:48;101871.81;;;22.01;33.17
17254;BME280;32542;52.832;13.816;2023-05-12T13:35:51;101866.47;;;22.01;33.11
17254;BME280;32542;52.832;13.816;2023-05-12T13:38:55;101868.19;;;22.02;32.66
17254;BME280;32542;52.832;13.816;2023-05-12T13:41:58;101862.84;;;22.02;32.88
17254;BME280;32542;52.832;13.816;2023-05-12T13:45:03;101874.34;;;22.04;33.15
17254;BME280;32542;52.832;13.816;2023-05-12T13:48:06;101857.34;;;22.07;33.17
17254;BME280;32542;52.832;13.816;2023-05-12T13:51:09;101868.91;;;22.07;32.95
17254;BME280;32542;52.832;13.816;2023-05-12T13:54:11;101861.00;;;22.04;31.74
17254;BME280;32542;52.832;13.816;2023-05-12T13:57:15;101863.81;;;22.00;32.53
17254;BME280;32542;52.832;13.816;2023-05-12T14:00:19;101860.28;;;21.99;32.63
17254;BME280;32542;52.832;13.816;2023-05-12T14:03:22;101855.78;;;22.01;32.95
17254;BME280;32542;52.832;13.816;2023-05-12T14:06:25;101852.09;;;22.05;32.96
17254;BME280;32542;52.832;13.816;2023-05-12T14:09:28;101850.22;;;22.07;33.10
17254;BME280;32542;52.832;13.816;2023-05-12T14:12:30;101845.72;;;22.09;32.93
17254;BME280;32542;52.832;13.816;2023-05-12T14:15:35;101857.19;;;22.11;32.92
17254;BME280;32542;52.832;13.816;2023-05-12T14:18:49;101853.50;;;22.15;32.42
17254;BME280;32542;52.832;13.816;2023-05-12T14:21:52;101849.94;;;22.15;32.03
17254;BME280;32542;52.832;13.816;2023-05-12T14:24:55;101853.56;;;22.14;32.77
17254;BME280;32542;52.832;13.816;2023-05-12T14:27:57;101853.59;;;22.12;33.71
17254;BME280;32542;52.832;13.816;2023-05-12T14:31:02;101860.78;;;22.10;33.50
17254;BME280;32542;52.832;13.816;2023-05-12T14:34:04;101856.41;;;22.08;34.70
17254;BME280;32542;52.832;13.816;2023-05-12T14:37:09;101857.44;;;22.05;34.94
17254;BME280;32542;52.832;13.816;2023-05-12T14:40:13;101861.00;;;22.04;35.03
17254;BME280;32542;52.832;13.816;2023-05-12T14:43:16;101861.97;;;22.02;34.92
17254;BME280;32542;52.832;13.816;2023-05-12T14:46:20;101854.03;;;22.00;35.03
17254;BME280;32542;52.832;13.816;2023-05-12T14:49:25;101859.38;;;22.00;34.80
17254;BME280;32542;52.832;13.816;2023-05-12T14:52:28;101865.63;;;21.99;34.73
17254;BME280;32542;52.832;13.816;2023-05-12T14:55:31;101851.31;;;22.02;33.83
17254;BME280;32542;52.832;13.816;2023-05-12T14:58:34;101862.75;;;22.05;32.83
17254;BME280;32542;52.832;13.816;2023-05-12T15:01:38;101858.19;;;22.09;32.90
17254;BME280;32542;52.832;13.816;2023-05-12T15:04:41;101858.91;;;22.12;32.10
17254;BME280;32542;52.832;13.816;2023-05-12T15:07:44;101838.41;;;22.14;31.86
17254;BME280;32542;52.832;13.816;2023-05-12T15:10:47;101851.56;;;22.19;31.59
17254;BME280;32542;52.832;13.816;2023-05-12T15:13:50;101851.56;;;22.19;30.90
17254;BME280;32542;52.832;13.816;2023-05-12T15:16:54;101853.25;;;22.21;31.14
17254;BME280;32542;52.832;13.816;2023-05-12T15:19:57;101853.19;;;22.23;30.91
17254;BME280;32542;52.832;13.816;2023-05-12T15:22:59;101859.41;;;22.23;30.52
17254;BME280;32542;52.832;13.816;2023-05-12T15:26:04;101868.16;;;22.27;30.85
17254;BME280;32542;52.832;13.816;2023-05-12T15:29:27;101864.53;;;22.29;30.55
17254;BME280;32542;52.832;13.816;2023-05-12T15:32:34;101867.16;;;22.31;30.19
17254;BME280;32542;52.832;13.816;2023-05-12T15:35:38;101860.81;;;22.33;30.84
17254;BME280;32542;52.832;13.816;2023-05-12T15:38:41;101862.56;;;22.34;30.78
17254;BME280;32542;52.832;13.816;2023-05-12T15:41:44;101857.16;;;22.36;31.16
17254;BME280;32542;52.832;13.816;2023-05-12T15:44:46;101858.03;;;22.36;30.65
17254;BME280;32542;52.832;13.816;2023-05-12T15:47:50;101868.72;;;22.36;30.48
17254;BME280;32542;52.832;13.816;2023-05-12T15:50:53;101860.63;;;22.38;31.07